sensor_id;sensor_type;location;lat;lon;timestamp;temperature;humidity
44851;DHT22;30583;48.714;9.386;2022-11-15T00:01:45;8.20;84.50
44851;DHT22;30583;48.714;9.386;2022-11-15T00:04:11;8.00;84.60
44851;DHT22;30583;48.714;9.386;2022-11-15T00:06:36;7.90;85.20
44851;DHT22;30583;48.714;9.386;2022-11-15T00:09:02;7.90;85.50
44851;DHT22;30583;48.714;9.386;2022-11-15T00:11:28;7.80;85.80
44851;DHT22;30583;48.714;9.386;2022-11-15T00:13:57;7.90;86.20
44851;DHT22;30583;48.714;9.386;2022-11-15T00:16:23;8.20;85.40
44851;DHT22;30583;48.714;9.386;2022-11-15T00:18:50;8.20;85.00
44851;DHT22;30583;48.714;9.386;2022-11-15T00:21:16;8.20;84.90
44851;DHT22;30583;48.714;9.386;2022-11-15T00:23:42;8.20;84.90
44851;DHT22;30583;48.714;9.386;2022-11-15T00:26:12;8.20;85.10
44851;DHT22;30583;48.714;9.386;2022-11-15T00:28:38;8.10;85.20
44851;DHT22;30583;48.714;9.386;2022-11-15T00:31:05;8.10;85.60
44851;DHT22;30583;48.714;9.386;2022-11-15T00:33:32;8.20;85.30
44851;DHT22;30583;48.714;9.386;2022-11-15T00:36:02;8.10;85.20
44851;DHT22;30583;48.714;9.386;2022-11-15T00:38:33;8.20;85.00
44851;DHT22;30583;48.714;9.386;2022-11-15T00:41:00;8.20;85.10
44851;DHT22;30583;48.714;9.386;2022-11-15T00:43:26;8.10;85.20
44851;DHT22;30583;48.714;9.386;2022-11-15T00:45:51;8.10;85.50
44851;DHT22;30583;48.714;9.386;2022-11-15T00:48:17;8.20;85.20
44851;DHT22;30583;48.714;9.386;2022-11-15T00:50:43;8.10;85.40
44851;DHT22;30583;48.714;9.386;2022-11-15T00:53:08;8.10;85.30
44851;DHT22;30583;48.714;9.386;2022-11-15T00:55:34;8.20;84.90
44851;DHT22;30583;48.714;9.386;2022-11-15T00:57:59;8.00;85.50
44851;DHT22;30583;48.714;9.386;2022-11-15T01:00:25;8.10;85.20
44851;DHT22;30583;48.714;9.386;2022-11-15T01:02:50;8.10;85.10
44851;DHT22;30583;48.714;9.386;2022-11-15T01:05:16;7.90;85.50
44851;DHT22;30583;48.714;9.386;2022-11-15T01:07:42;8.00;85.60
44851;DHT22;30583;48.714;9.386;2022-11-15T01:10:08;7.90;85.60
44851;DHT22;30583;48.714;9.386;2022-11-15T01:12:33;7.90;85.70
44851;DHT22;30583;48.714;9.386;2022-11-15T01:14:59;7.90;85.90
44851;DHT22;30583;48.714;9.386;2022-11-15T01:17:25;7.90;85.60
44851;DHT22;30583;48.714;9.386;2022-11-15T01:19:51;7.90;85.50
44851;DHT22;30583;48.714;9.386;2022-11-15T01:22:16;7.80;85.40
44851;DHT22;30583;48.714;9.386;2022-11-15T01:24:42;7.70;85.70
44851;DHT22;30583;48.714;9.386;2022-11-15T01:27:08;7.70;85.50
44851;DHT22;30583;48.714;9.386;2022-11-15T01:29:34;7.70;85.40
44851;DHT22;30583;48.714;9.386;2022-11-15T01:32:00;7.60;85.70
44851;DHT22;30583;48.714;9.386;2022-11-15T01:34:25;7.50;85.60
44851;DHT22;30583;48.714;9.386;2022-11-15T01:36:51;7.50;85.60
44851;DHT22;30583;48.714;9.386;2022-11-15T01:39:17;7.50;85.70
44851;DHT22;30583;48.714;9.386;2022-11-15T01:41:42;7.50;85.50
44851;DHT22;30583;48.714;9.386;2022-11-15T01:46:56;7.40;85.30
44851;DHT22;30583;48.714;9.386;2022-11-15T01:49:23;7.40;85.10
44851;DHT22;30583;48.714;9.386;2022-11-15T01:51:49;7.50;85.10
44851;DHT22;30583;48.714;9.386;2022-11-15T01:54:18;7.50;84.80
44851;DHT22;30583;48.714;9.386;2022-11-15T01:56:50;7.20;85.40
44851;DHT22;30583;48.714;9.386;2022-11-15T01:59:16;7.30;85.30
44851;DHT22;30583;48.714;9.386;2022-11-15T02:01:43;7.20;85.10
44851;DHT22;30583;48.714;9.386;2022-11-15T02:04:13;7.20;84.80
44851;DHT22;30583;48.714;9.386;2022-11-15T02:06:41;7.30;84.60
44851;DHT22;30583;48.714;9.386;2022-11-15T02:09:06;7.20;84.80
44851;DHT22;30583;48.714;9.386;2022-11-15T02:11:32;7.10;84.90
44851;DHT22;30583;48.714;9.386;2022-11-15T02:13:59;7.20;85.00
44851;DHT22;30583;48.714;9.386;2022-11-15T02:16:53;7.10;84.90
44851;DHT22;30583;48.714;9.386;2022-11-15T02:19:47;7.00;85.10
44851;DHT22;30583;48.714;9.386;2022-11-15T02:31:35;7.10;84.50
44851;DHT22;30583;48.714;9.386;2022-11-15T02:41:53;7.00;84.70
44851;DHT22;30583;48.714;9.386;2022-11-15T02:44:39;6.90;84.90
44851;DHT22;30583;48.714;9.386;2022-11-15T02:47:10;6.90;84.70
44851;DHT22;30583;48.714;9.386;2022-11-15T02:49:52;6.90;84.40
44851;DHT22;30583;48.714;9.386;2022-11-15T02:52:23;6.70;84.60
44851;DHT22;30583;48.714;9.386;2022-11-15T02:55:00;6.90;84.50
44851;DHT22;30583;48.714;9.386;2022-11-15T03:00:20;6.60;84.70
44851;DHT22;30583;48.714;9.386;2022-11-15T03:08:16;6.50;84.60
44851;DHT22;30583;48.714;9.386;2022-11-15T03:11:03;6.70;84.60
44851;DHT22;30583;48.714;9.386;2022-11-15T03:16:38;6.40;85.50
44851;DHT22;30583;48.714;9.386;2022-11-15T03:19:19;6.40;85.90
44851;DHT22;30583;48.714;9.386;2022-11-15T03:21:46;6.40;85.60
44851;DHT22;30583;48.714;9.386;2022-11-15T03:24:14;6.60;86.20
44851;DHT22;30583;48.714;9.386;2022-11-15T03:26:42;6.80;85.10
44851;DHT22;30583;48.714;9.386;2022-11-15T03:29:19;6.90;84.40
44851;DHT22;30583;48.714;9.386;2022-11-15T03:31:51;7.00;84.30
44851;DHT22;30583;48.714;9.386;2022-11-15T03:34:21;6.90;84.30
44851;DHT22;30583;48.714;9.386;2022-11-15T03:36:49;6.80;84.10
44851;DHT22;30583;48.714;9.386;2022-11-15T03:39:16;6.70;84.70
44851;DHT22;30583;48.714;9.386;2022-11-15T03:41:57;6.80;84.40
44851;DHT22;30583;48.714;9.386;2022-11-15T03:44:40;6.70;84.50
44851;DHT22;30583;48.714;9.386;2022-11-15T03:47:09;6.50;85.70
44851;DHT22;30583;48.714;9.386;2022-11-15T03:49:41;6.50;85.80
44851;DHT22;30583;48.714;9.386;2022-11-15T03:52:09;6.60;85.60
44851;DHT22;30583;48.714;9.386;2022-11-15T03:54:35;6.80;84.80
44851;DHT22;30583;48.714;9.386;2022-11-15T03:57:01;6.90;84.50
44851;DHT22;30583;48.714;9.386;2022-11-15T03:59:26;6.90;84.30
44851;DHT22;30583;48.714;9.386;2022-11-15T04:01:52;6.80;84.60
44851;DHT22;30583;48.714;9.386;2022-11-15T04:04:17;6.80;84.80
44851;DHT22;30583;48.714;9.386;2022-11-15T04:06:43;6.60;85.10
44851;DHT22;30583;48.714;9.386;2022-11-15T04:09:08;6.70;85.20
44851;DHT22;30583;48.714;9.386;2022-11-15T04:11:34;6.60;85.10
44851;DHT22;30583;48.714;9.386;2022-11-15T04:14:00;6.70;85.00
44851;DHT22;30583;48.714;9.386;2022-11-15T04:16:25;6.40;85.90
44851;DHT22;30583;48.714;9.386;2022-11-15T04:18:51;6.60;85.60
44851;DHT22;30583;48.714;9.386;2022-11-15T04:21:36;6.80;85.10
44851;DHT22;30583;48.714;9.386;2022-11-15T04:24:20;6.80;84.80
44851;DHT22;30583;48.714;9.386;2022-11-15T04:26:46;6.90;84.20
44851;DHT22;30583;48.714;9.386;2022-11-15T04:29:11;6.70;84.40
44851;DHT22;30583;48.714;9.386;2022-11-15T04:31:55;6.80;84.70
44851;DHT22;30583;48.714;9.386;2022-11-15T04:34:21;6.70;84.40
44851;DHT22;30583;48.714;9.386;2022-11-15T04:36:47;6.70;84.70
44851;DHT22;30583;48.714;9.386;2022-11-15T04:39:31;6.50;84.70
44851;DHT22;30583;48.714;9.386;2022-11-15T04:41:57;6.50;85.20
44851;DHT22;30583;48.714;9.386;2022-11-15T04:44:22;6.60;84.60
44851;DHT22;30583;48.714;9.386;2022-11-15T04:46:48;6.60;84.50
44851;DHT22;30583;48.714;9.386;2022-11-15T04:49:13;6.50;84.40
44851;DHT22;30583;48.714;9.386;2022-11-15T04:51:39;6.50;84.60
44851;DHT22;30583;48.714;9.386;2022-11-15T04:54:04;6.60;84.40
44851;DHT22;30583;48.714;9.386;2022-11-15T04:56:30;6.50;84.30
44851;DHT22;30583;48.714;9.386;2022-11-15T04:58:55;6.60;84.50
44851;DHT22;30583;48.714;9.386;2022-11-15T05:01:21;6.70;84.00
44851;DHT22;30583;48.714;9.386;2022-11-15T05:03:47;6.60;83.90
44851;DHT22;30583;48.714;9.386;2022-11-15T05:06:31;6.70;83.90
44851;DHT22;30583;48.714;9.386;2022-11-15T05:08:57;6.40;84.20
44851;DHT22;30583;48.714;9.386;2022-11-15T05:11:23;6.50;84.20
44851;DHT22;30583;48.714;9.386;2022-11-15T05:13:49;6.40;83.80
44851;DHT22;30583;48.714;9.386;2022-11-15T05:16:14;6.30;84.00
44851;DHT22;30583;48.714;9.386;2022-11-15T05:18:40;6.20;84.60
44851;DHT22;30583;48.714;9.386;2022-11-15T05:21:08;6.10;84.70
44851;DHT22;30583;48.714;9.386;2022-11-15T05:23:34;6.30;84.70
44851;DHT22;30583;48.714;9.386;2022-11-15T05:26:00;6.30;84.50
44851;DHT22;30583;48.714;9.386;2022-11-15T05:28:26;6.10;84.90
44851;DHT22;30583;48.714;9.386;2022-11-15T05:30:52;6.20;84.70
44851;DHT22;30583;48.714;9.386;2022-11-15T05:33:18;6.40;83.90
44851;DHT22;30583;48.714;9.386;2022-11-15T05:35:48;6.10;85.40
44851;DHT22;30583;48.714;9.386;2022-11-15T05:38:15;6.10;85.30
44851;DHT22;30583;48.714;9.386;2022-11-15T05:40:41;6.20;85.10
44851;DHT22;30583;48.714;9.386;2022-11-15T05:43:07;6.20;85.10
44851;DHT22;30583;48.714;9.386;2022-11-15T05:45:34;6.40;84.80
44851;DHT22;30583;48.714;9.386;2022-11-15T05:48:00;6.10;85.10
44851;DHT22;30583;48.714;9.386;2022-11-15T05:50:29;6.20;85.60
44851;DHT22;30583;48.714;9.386;2022-11-15T05:52:56;6.20;85.40
44851;DHT22;30583;48.714;9.386;2022-11-15T05:55:21;6.10;85.10
44851;DHT22;30583;48.714;9.386;2022-11-15T05:57:47;6.20;85.20
44851;DHT22;30583;48.714;9.386;2022-11-15T06:00:13;6.10;85.10
44851;DHT22;30583;48.714;9.386;2022-11-15T06:02:39;6.10;84.80
44851;DHT22;30583;48.714;9.386;2022-11-15T06:05:04;5.90;84.90
44851;DHT22;30583;48.714;9.386;2022-11-15T06:07:30;6.00;85.10
44851;DHT22;30583;48.714;9.386;2022-11-15T06:09:56;5.90;84.90
44851;DHT22;30583;48.714;9.386;2022-11-15T06:12:21;6.30;86.30
44851;DHT22;30583;48.714;9.386;2022-11-15T06:14:47;6.30;84.60
44851;DHT22;30583;48.714;9.386;2022-11-15T06:17:13;6.60;84.70
44851;DHT22;30583;48.714;9.386;2022-11-15T06:19:38;6.90;83.40
44851;DHT22;30583;48.714;9.386;2022-11-15T06:22:04;7.10;82.40
44851;DHT22;30583;48.714;9.386;2022-11-15T06:24:29;6.90;82.70
44851;DHT22;30583;48.714;9.386;2022-11-15T06:26:55;6.70;82.20
44851;DHT22;30583;48.714;9.386;2022-11-15T06:29:20;6.10;83.60
44851;DHT22;30583;48.714;9.386;2022-11-15T06:31:46;5.90;84.40
44851;DHT22;30583;48.714;9.386;2022-11-15T06:34:11;5.90;84.60
44851;DHT22;30583;48.714;9.386;2022-11-15T06:36:37;6.10;84.40
44851;DHT22;30583;48.714;9.386;2022-11-15T06:39:03;6.20;84.00
44851;DHT22;30583;48.714;9.386;2022-11-15T06:41:29;6.20;83.90
44851;DHT22;30583;48.714;9.386;2022-11-15T06:43:56;6.10;83.60
44851;DHT22;30583;48.714;9.386;2022-11-15T06:46:21;6.00;84.00
44851;DHT22;30583;48.714;9.386;2022-11-15T06:48:47;6.00;84.30
44851;DHT22;30583;48.714;9.386;2022-11-15T06:51:14;6.10;84.70
44851;DHT22;30583;48.714;9.386;2022-11-15T06:53:40;6.30;86.00
44851;DHT22;30583;48.714;9.386;2022-11-15T06:56:06;7.20;87.70
44851;DHT22;30583;48.714;9.386;2022-11-15T06:58:32;6.90;83.50
44851;DHT22;30583;48.714;9.386;2022-11-15T07:01:00;6.20;83.80
44851;DHT22;30583;48.714;9.386;2022-11-15T07:03:26;5.80;84.40
44851;DHT22;30583;48.714;9.386;2022-11-15T07:05:56;6.00;84.40
44851;DHT22;30583;48.714;9.386;2022-11-15T07:08:23;6.00;84.40
44851;DHT22;30583;48.714;9.386;2022-11-15T07:10:49;6.00;84.20
44851;DHT22;30583;48.714;9.386;2022-11-15T07:13:15;5.90;84.10
44851;DHT22;30583;48.714;9.386;2022-11-15T07:15:41;5.90;84.50
44851;DHT22;30583;48.714;9.386;2022-11-15T07:18:06;6.10;84.10
44851;DHT22;30583;48.714;9.386;2022-11-15T07:20:32;6.00;83.90
44851;DHT22;30583;48.714;9.386;2022-11-15T07:23:02;6.00;83.90
44851;DHT22;30583;48.714;9.386;2022-11-15T07:25:28;6.20;83.70
44851;DHT22;30583;48.714;9.386;2022-11-15T07:27:58;6.20;83.40
44851;DHT22;30583;48.714;9.386;2022-11-15T07:30:24;6.20;83.60
44851;DHT22;30583;48.714;9.386;2022-11-15T07:32:58;6.10;84.00
44851;DHT22;30583;48.714;9.386;2022-11-15T07:35:25;6.30;83.70
44851;DHT22;30583;48.714;9.386;2022-11-15T07:37:57;6.50;83.30
44851;DHT22;30583;48.714;9.386;2022-11-15T07:40:24;6.50;83.30
44851;DHT22;30583;48.714;9.386;2022-11-15T07:42:50;6.50;83.50
44851;DHT22;30583;48.714;9.386;2022-11-15T07:45:20;6.70;83.10
44851;DHT22;30583;48.714;9.386;2022-11-15T07:47:46;6.50;83.50
44851;DHT22;30583;48.714;9.386;2022-11-15T07:50:12;6.50;83.70
44851;DHT22;30583;48.714;9.386;2022-11-15T07:52:37;6.50;84.00
44851;DHT22;30583;48.714;9.386;2022-11-15T07:55:03;6.50;84.30
44851;DHT22;30583;48.714;9.386;2022-11-15T07:57:29;6.50;84.50
44851;DHT22;30583;48.714;9.386;2022-11-15T07:59:55;6.60;84.80
44851;DHT22;30583;48.714;9.386;2022-11-15T08:02:21;6.70;84.50
44851;DHT22;30583;48.714;9.386;2022-11-15T08:04:46;6.50;84.90
44851;DHT22;30583;48.714;9.386;2022-11-15T08:07:12;6.70;84.40
44851;DHT22;30583;48.714;9.386;2022-11-15T08:09:37;6.90;84.10
44851;DHT22;30583;48.714;9.386;2022-11-15T08:12:03;6.70;84.40
44851;DHT22;30583;48.714;9.386;2022-11-15T08:14:29;6.80;84.10
44851;DHT22;30583;48.714;9.386;2022-11-15T08:16:55;7.10;83.90
44851;DHT22;30583;48.714;9.386;2022-11-15T08:19:20;7.20;83.50
44851;DHT22;30583;48.714;9.386;2022-11-15T08:21:46;7.20;83.10
44851;DHT22;30583;48.714;9.386;2022-11-15T08:24:12;7.50;82.90
44851;DHT22;30583;48.714;9.386;2022-11-15T08:26:38;7.60;82.60
44851;DHT22;30583;48.714;9.386;2022-11-15T08:29:03;7.70;82.60
44851;DHT22;30583;48.714;9.386;2022-11-15T08:31:29;7.90;82.30
44851;DHT22;30583;48.714;9.386;2022-11-15T08:33:54;7.60;83.10
44851;DHT22;30583;48.714;9.386;2022-11-15T08:36:20;7.80;83.20
44851;DHT22;30583;48.714;9.386;2022-11-15T08:38:46;7.90;82.90
44851;DHT22;30583;48.714;9.386;2022-11-15T08:41:15;7.90;82.90
44851;DHT22;30583;48.714;9.386;2022-11-15T08:43:42;8.00;82.60
44851;DHT22;30583;48.714;9.386;2022-11-15T08:46:11;8.10;82.70
44851;DHT22;30583;48.714;9.386;2022-11-15T08:48:37;8.20;82.50
44851;DHT22;30583;48.714;9.386;2022-11-15T08:51:03;8.40;82.00
44851;DHT22;30583;48.714;9.386;2022-11-15T08:53:29;8.30;82.20
44851;DHT22;30583;48.714;9.386;2022-11-15T08:55:54;8.30;82.20
44851;DHT22;30583;48.714;9.386;2022-11-15T08:58:20;8.10;82.40
44851;DHT22;30583;48.714;9.386;2022-11-15T09:00:45;8.30;82.20
44851;DHT22;30583;48.714;9.386;2022-11-15T09:03:11;8.40;81.90
44851;DHT22;30583;48.714;9.386;2022-11-15T09:05:37;8.30;82.10
44851;DHT22;30583;48.714;9.386;2022-11-15T09:08:03;8.50;82.00
44851;DHT22;30583;48.714;9.386;2022-11-15T09:10:29;8.50;81.90
44851;DHT22;30583;48.714;9.386;2022-11-15T09:12:56;8.40;82.00
44851;DHT22;30583;48.714;9.386;2022-11-15T09:15:22;8.70;81.60
44851;DHT22;30583;48.714;9.386;2022-11-15T09:17:48;8.90;81.20
44851;DHT22;30583;48.714;9.386;2022-11-15T09:20:13;9.00;81.10
44851;DHT22;30583;48.714;9.386;2022-11-15T09:22:39;9.10;81.00
44851;DHT22;30583;48.714;9.386;2022-11-15T09:25:05;9.10;81.20
44851;DHT22;30583;48.714;9.386;2022-11-15T09:27:31;9.10;81.00
44851;DHT22;30583;48.714;9.386;2022-11-15T09:29:57;9.30;80.70
44851;DHT22;30583;48.714;9.386;2022-11-15T09:32:23;9.60;79.80
44851;DHT22;30583;48.714;9.386;2022-11-15T09:34:49;9.80;79.30
44851;DHT22;30583;48.714;9.386;2022-11-15T09:37:14;9.80;78.90
44851;DHT22;30583;48.714;9.386;2022-11-15T09:39:40;9.90;78.90
44851;DHT22;30583;48.714;9.386;2022-11-15T09:48:07;10.50;77.90
44851;DHT22;30583;48.714;9.386;2022-11-15T09:50:48;10.50;77.30
44851;DHT22;30583;48.714;9.386;2022-11-15T09:53:35;10.50;78.00
44851;DHT22;30583;48.714;9.386;2022-11-15T09:56:20;10.70;77.40
44851;DHT22;30583;48.714;9.386;2022-11-15T09:59:05;11.20;76.60
44851;DHT22;30583;48.714;9.386;2022-11-15T10:01:39;11.50;75.30
44851;DHT22;30583;48.714;9.386;2022-11-15T10:04:06;11.70;73.90
44851;DHT22;30583;48.714;9.386;2022-11-15T10:06:34;12.10;73.40
44851;DHT22;30583;48.714;9.386;2022-11-15T10:09:15;12.20;73.00
44851;DHT22;30583;48.714;9.386;2022-11-15T10:11:42;12.20;72.90
44851;DHT22;30583;48.714;9.386;2022-11-15T10:14:15;12.60;71.90
44851;DHT22;30583;48.714;9.386;2022-11-15T10:19:47;13.20;70.50
44851;DHT22;30583;48.714;9.386;2022-11-15T10:22:35;13.20;70.80
44851;DHT22;30583;48.714;9.386;2022-11-15T10:27:38;12.70;71.80
44851;DHT22;30583;48.714;9.386;2022-11-15T10:30:11;12.70;72.90
44851;DHT22;30583;48.714;9.386;2022-11-15T10:32:36;12.40;73.10
44851;DHT22;30583;48.714;9.386;2022-11-15T10:35:26;12.40;72.80
44851;DHT22;30583;48.714;9.386;2022-11-15T10:38:05;12.40;73.10
44851;DHT22;30583;48.714;9.386;2022-11-15T10:40:31;12.30;73.10
44851;DHT22;30583;48.714;9.386;2022-11-15T10:43:26;12.30;73.60
44851;DHT22;30583;48.714;9.386;2022-11-15T10:45:52;12.40;73.80
44851;DHT22;30583;48.714;9.386;2022-11-15T10:50:45;12.40;74.60
44851;DHT22;30583;48.714;9.386;2022-11-15T10:53:32;12.30;73.90
44851;DHT22;30583;48.714;9.386;2022-11-15T10:56:05;12.30;74.10
44851;DHT22;30583;48.714;9.386;2022-11-15T11:01:27;12.40;74.30
44851;DHT22;30583;48.714;9.386;2022-11-15T11:04:08;12.40;74.40
44851;DHT22;30583;48.714;9.386;2022-11-15T11:06:52;12.60;74.50
44851;DHT22;30583;48.714;9.386;2022-11-15T11:09:38;12.60;74.70
44851;DHT22;30583;48.714;9.386;2022-11-15T11:12:10;12.50;74.80
44851;DHT22;30583;48.714;9.386;2022-11-15T11:14:38;12.40;75.10
44851;DHT22;30583;48.714;9.386;2022-11-15T11:17:27;12.40;74.80
44851;DHT22;30583;48.714;9.386;2022-11-15T11:22:57;12.40;75.60
44851;DHT22;30583;48.714;9.386;2022-11-15T11:31:08;12.30;76.70
44851;DHT22;30583;48.714;9.386;2022-11-15T11:47:40;12.60;75.80
44851;DHT22;30583;48.714;9.386;2022-11-15T11:50:19;12.50;76.00
44851;DHT22;30583;48.714;9.386;2022-11-15T11:55:24;12.50;76.00
44851;DHT22;30583;48.714;9.386;2022-11-15T12:00:40;13.20;75.40
44851;DHT22;30583;48.714;9.386;2022-11-15T12:03:18;13.20;75.00
44851;DHT22;30583;48.714;9.386;2022-11-15T12:05:48;13.20;74.70
44851;DHT22;30583;48.714;9.386;2022-11-15T12:11:09;13.20;75.10
44851;DHT22;30583;48.714;9.386;2022-11-15T12:13:36;13.30;75.50
44851;DHT22;30583;48.714;9.386;2022-11-15T12:16:28;13.20;74.80
44851;DHT22;30583;48.714;9.386;2022-11-15T12:19:02;13.50;74.90
44851;DHT22;30583;48.714;9.386;2022-11-15T12:24:02;13.20;74.50
44851;DHT22;30583;48.714;9.386;2022-11-15T12:29:38;13.20;74.90
44851;DHT22;30583;48.714;9.386;2022-11-15T12:32:22;13.30;75.40
44851;DHT22;30583;48.714;9.386;2022-11-15T12:34:50;13.30;74.70
44851;DHT22;30583;48.714;9.386;2022-11-15T12:40:21;13.30;74.90
44851;DHT22;30583;48.714;9.386;2022-11-15T12:45:38;13.20;76.30
44851;DHT22;30583;48.714;9.386;2022-11-15T12:58:55;13.30;74.80
44851;DHT22;30583;48.714;9.386;2022-11-15T13:06:52;13.30;71.70
44851;DHT22;30583;48.714;9.386;2022-11-15T13:14:56;13.20;72.60
44851;DHT22;30583;48.714;9.386;2022-11-15T13:20:00;13.10;73.90
44851;DHT22;30583;48.714;9.386;2022-11-15T13:22:38;13.20;73.60
44851;DHT22;30583;48.714;9.386;2022-11-15T13:30:54;13.50;74.10
44851;DHT22;30583;48.714;9.386;2022-11-15T13:33:24;13.40;73.90
44851;DHT22;30583;48.714;9.386;2022-11-15T13:35:55;13.50;74.50
44851;DHT22;30583;48.714;9.386;2022-11-15T13:38:28;14.60;75.70
44851;DHT22;30583;48.714;9.386;2022-11-15T13:40:54;15.70;68.60
44851;DHT22;30583;48.714;9.386;2022-11-15T13:43:36;15.40;67.80
44851;DHT22;30583;48.714;9.386;2022-11-15T13:46:20;14.00;70.20
44851;DHT22;30583;48.714;9.386;2022-11-15T13:48:58;13.40;72.40
44851;DHT22;30583;48.714;9.386;2022-11-15T13:51:33;13.30;72.10
44851;DHT22;30583;48.714;9.386;2022-11-15T13:56:40;13.10;72.00
44851;DHT22;30583;48.714;9.386;2022-11-15T13:59:15;13.10;71.50
44851;DHT22;30583;48.714;9.386;2022-11-15T14:01:43;13.10;71.30
44851;DHT22;30583;48.714;9.386;2022-11-15T14:04:13;13.10;71.90
44851;DHT22;30583;48.714;9.386;2022-11-15T14:06:46;13.00;71.90
44851;DHT22;30583;48.714;9.386;2022-11-15T14:11:55;13.00;72.10
44851;DHT22;30583;48.714;9.386;2022-11-15T14:14:26;13.00;72.70
44851;DHT22;30583;48.714;9.386;2022-11-15T14:16:54;12.90;73.10
44851;DHT22;30583;48.714;9.386;2022-11-15T14:22:08;13.00;73.60
44851;DHT22;30583;48.714;9.386;2022-11-15T14:24:35;13.00;73.60
44851;DHT22;30583;48.714;9.386;2022-11-15T14:27:27;12.90;73.60
44851;DHT22;30583;48.714;9.386;2022-11-15T14:29:53;12.80;73.80
44851;DHT22;30583;48.714;9.386;2022-11-15T14:32:27;12.90;73.20
44851;DHT22;30583;48.714;9.386;2022-11-15T14:34:54;12.90;73.40
44851;DHT22;30583;48.714;9.386;2022-11-15T14:39:47;12.80;75.10
44851;DHT22;30583;48.714;9.386;2022-11-15T14:42:13;12.70;75.90
44851;DHT22;30583;48.714;9.386;2022-11-15T14:44:38;12.70;76.20
44851;DHT22;30583;48.714;9.386;2022-11-15T14:47:04;12.70;76.40
44851;DHT22;30583;48.714;9.386;2022-11-15T14:49:29;12.70;76.90
44851;DHT22;30583;48.714;9.386;2022-11-15T14:51:56;12.70;77.20
44851;DHT22;30583;48.714;9.386;2022-11-15T14:54:22;12.70;77.60
44851;DHT22;30583;48.714;9.386;2022-11-15T14:56:47;12.60;78.30
44851;DHT22;30583;48.714;9.386;2022-11-15T14:59:13;12.50;78.60
44851;DHT22;30583;48.714;9.386;2022-11-15T15:01:38;12.60;78.90
44851;DHT22;30583;48.714;9.386;2022-11-15T15:04:04;12.50;79.20
44851;DHT22;30583;48.714;9.386;2022-11-15T15:06:30;12.50;79.40
44851;DHT22;30583;48.714;9.386;2022-11-15T15:08:56;12.50;79.80
44851;DHT22;30583;48.714;9.386;2022-11-15T15:11:31;12.50;79.90
44851;DHT22;30583;48.714;9.386;2022-11-15T15:13:57;12.50;79.80
44851;DHT22;30583;48.714;9.386;2022-11-15T15:16:24;12.50;79.90
44851;DHT22;30583;48.714;9.386;2022-11-15T15:18:50;12.60;79.60
44851;DHT22;30583;48.714;9.386;2022-11-15T15:21:24;12.50;79.70
44851;DHT22;30583;48.714;9.386;2022-11-15T15:23:50;12.50;79.70
44851;DHT22;30583;48.714;9.386;2022-11-15T15:26:16;12.50;79.70
44851;DHT22;30583;48.714;9.386;2022-11-15T15:28:42;12.40;80.70
44851;DHT22;30583;48.714;9.386;2022-11-15T15:31:09;12.40;81.10
44851;DHT22;30583;48.714;9.386;2022-11-15T15:33:35;12.40;81.30
44851;DHT22;30583;48.714;9.386;2022-11-15T15:36:01;12.30;81.60
44851;DHT22;30583;48.714;9.386;2022-11-15T15:38:26;12.20;81.90
44851;DHT22;30583;48.714;9.386;2022-11-15T15:40:52;12.30;81.30
44851;DHT22;30583;48.714;9.386;2022-11-15T15:43:18;12.30;81.10
44851;DHT22;30583;48.714;9.386;2022-11-15T15:45:43;12.30;81.00
44851;DHT22;30583;48.714;9.386;2022-11-15T15:48:14;12.20;81.60
44851;DHT22;30583;48.714;9.386;2022-11-15T15:50:41;12.20;81.60
44851;DHT22;30583;48.714;9.386;2022-11-15T15:53:09;12.20;82.30
44851;DHT22;30583;48.714;9.386;2022-11-15T15:55:36;12.10;82.90
44851;DHT22;30583;48.714;9.386;2022-11-15T15:58:01;12.00;83.10
44851;DHT22;30583;48.714;9.386;2022-11-15T16:00:27;12.10;83.30
44851;DHT22;30583;48.714;9.386;2022-11-15T16:02:53;12.10;83.30
44851;DHT22;30583;48.714;9.386;2022-11-15T16:05:19;11.90;83.70
44851;DHT22;30583;48.714;9.386;2022-11-15T16:07:45;12.00;83.60
44851;DHT22;30583;48.714;9.386;2022-11-15T16:10:17;12.00;83.40
44851;DHT22;30583;48.714;9.386;2022-11-15T16:12:43;12.00;83.30
44851;DHT22;30583;48.714;9.386;2022-11-15T16:15:09;12.00;83.50
44851;DHT22;30583;48.714;9.386;2022-11-15T16:17:38;11.80;84.40
44851;DHT22;30583;48.714;9.386;2022-11-15T16:22:53;11.70;85.10
44851;DHT22;30583;48.714;9.386;2022-11-15T16:25:19;11.70;85.00
44851;DHT22;30583;48.714;9.386;2022-11-15T16:27:44;11.80;84.90
44851;DHT22;30583;48.714;9.386;2022-11-15T16:30:15;11.80;84.90
44851;DHT22;30583;48.714;9.386;2022-11-15T16:32:41;11.70;85.20
44851;DHT22;30583;48.714;9.386;2022-11-15T16:35:10;11.70;85.20
44851;DHT22;30583;48.714;9.386;2022-11-15T16:37:37;11.70;85.20
44851;DHT22;30583;48.714;9.386;2022-11-15T16:40:08;11.60;85.40
44851;DHT22;30583;48.714;9.386;2022-11-15T16:42:36;11.60;85.90
44851;DHT22;30583;48.714;9.386;2022-11-15T16:45:02;11.50;86.10
44851;DHT22;30583;48.714;9.386;2022-11-15T16:47:27;11.50;86.20
44851;DHT22;30583;48.714;9.386;2022-11-15T16:49:53;11.50;86.20
44851;DHT22;30583;48.714;9.386;2022-11-15T16:52:18;11.50;86.10
44851;DHT22;30583;48.714;9.386;2022-11-15T16:54:44;11.60;85.80
44851;DHT22;30583;48.714;9.386;2022-11-15T16:57:10;11.50;85.80
44851;DHT22;30583;48.714;9.386;2022-11-15T16:59:36;11.60;85.60
44851;DHT22;30583;48.714;9.386;2022-11-15T17:02:01;11.60;85.60
44851;DHT22;30583;48.714;9.386;2022-11-15T17:04:27;11.60;85.80
44851;DHT22;30583;48.714;9.386;2022-11-15T17:06:57;11.50;85.90
44851;DHT22;30583;48.714;9.386;2022-11-15T17:09:23;11.40;85.70
44851;DHT22;30583;48.714;9.386;2022-11-15T17:11:49;11.40;84.70
44851;DHT22;30583;48.714;9.386;2022-11-15T17:14:15;11.50;83.90
44851;DHT22;30583;48.714;9.386;2022-11-15T17:16:41;11.60;82.80
44851;DHT22;30583;48.714;9.386;2022-11-15T17:19:16;11.70;81.80
44851;DHT22;30583;48.714;9.386;2022-11-15T17:21:43;11.70;81.70
44851;DHT22;30583;48.714;9.386;2022-11-15T17:24:09;11.70;81.60
44851;DHT22;30583;48.714;9.386;2022-11-15T17:26:35;11.70;80.30
44851;DHT22;30583;48.714;9.386;2022-11-15T17:29:01;11.80;81.00
44851;DHT22;30583;48.714;9.386;2022-11-15T17:31:29;11.70;80.50
44851;DHT22;30583;48.714;9.386;2022-11-15T17:33:57;11.70;79.90
44851;DHT22;30583;48.714;9.386;2022-11-15T17:36:23;11.80;79.20
44851;DHT22;30583;48.714;9.386;2022-11-15T17:38:49;11.80;79.20
44851;DHT22;30583;48.714;9.386;2022-11-15T17:41:17;11.90;79.30
44851;DHT22;30583;48.714;9.386;2022-11-15T17:43:42;11.80;79.60
44851;DHT22;30583;48.714;9.386;2022-11-15T17:46:16;11.80;79.70
44851;DHT22;30583;48.714;9.386;2022-11-15T17:48:42;11.80;79.70
44851;DHT22;30583;48.714;9.386;2022-11-15T17:51:11;11.70;79.80
44851;DHT22;30583;48.714;9.386;2022-11-15T17:53:38;11.80;79.90
44851;DHT22;30583;48.714;9.386;2022-11-15T17:56:15;11.70;80.10
44851;DHT22;30583;48.714;9.386;2022-11-15T17:58:47;11.70;79.90
44851;DHT22;30583;48.714;9.386;2022-11-15T18:01:24;11.80;79.80
44851;DHT22;30583;48.714;9.386;2022-11-15T18:03:50;11.80;79.80